sensor_id;sensor_type;location;lat;lon;timestamp;P1;durP1;ratioP1;P2;durP2;ratioP2
20639;SDS011;10479;53.524;9.846;2023-10-13T00:02:00;15.50;;;4.53;;
20639;SDS011;10479;53.524;9.846;2023-10-13T00:04:29;16.70;;;4.47;;
20639;SDS011;10479;53.524;9.846;2023-10-13T00:06:57;25.08;;;5.35;;
20639;SDS011;10479;53.524;9.846;2023-10-13T00:09:23;18.67;;;5.13;;
20639;SDS011;10479;53.524;9.846;2023-10-13T00:11:57;19.65;;;4.85;;
20639;SDS011;10479;53.524;9.846;2023-10-13T00:14:23;14.13;;;4.50;;
20639;SDS011;10479;53.524;9.846;2023-10-13T00:16:57;15.93;;;4.88;;
20639;SDS011;10479;53.524;9.846;2023-10-13T00:19:48;15.27;;;4.00;;
20639;SDS011;10479;53.524;9.846;2023-10-13T00:22:17;19.33;;;4.80;;
20639;SDS011;10479;53.524;9.846;2023-10-13T00:24:44;16.60;;;5.05;;
20639;SDS011;10479;53.524;9.846;2023-10-13T00:27:18;13.40;;;4.95;;
20639;SDS011;10479;53.524;9.846;2023-10-13T00:30:05;20.98;;;4.85;;
20639;SDS011;10479;53.524;9.846;2023-10-13T00:32:41;18.27;;;5.40;;
20639;SDS011;10479;53.524;9.846;2023-10-13T00:35:09;18.13;;;5.82;;
20639;SDS011;10479;53.524;9.846;2023-10-13T00:37:37;17.42;;;5.28;;
20639;SDS011;10479;53.524;9.846;2023-10-13T00:40:12;18.15;;;5.70;;
20639;SDS011;10479;53.524;9.846;2023-10-13T00:42:56;21.15;;;5.55;;
20639;SDS011;10479;53.524;9.846;2023-10-13T00:45:45;23.05;;;6.03;;
20639;SDS011;10479;53.524;9.846;2023-10-13T00:48:44;27.25;;;6.13;;
20639;SDS011;10479;53.524;9.846;2023-10-13T00:51:19;18.80;;;6.03;;
20639;SDS011;10479;53.524;9.846;2023-10-13T00:53:58;22.92;;;5.82;;
20639;SDS011;10479;53.524;9.846;2023-10-13T00:56:25;18.50;;;5.88;;
20639;SDS011;10479;53.524;9.846;2023-10-13T00:58:58;22.45;;;7.47;;
20639;SDS011;10479;53.524;9.846;2023-10-13T01:01:27;28.25;;;8.02;;
20639;SDS011;10479;53.524;9.846;2023-10-13T01:04:01;24.50;;;7.57;;
20639;SDS011;10479;53.524;9.846;2023-10-13T01:06:28;30.83;;;8.30;;
20639;SDS011;10479;53.524;9.846;2023-10-13T01:08:58;29.13;;;7.80;;
20639;SDS011;10479;53.524;9.846;2023-10-13T01:11:37;21.83;;;8.10;;
20639;SDS011;10479;53.524;9.846;2023-10-13T01:14:03;26.50;;;7.75;;
20639;SDS011;10479;53.524;9.846;2023-10-13T01:16:29;29.67;;;8.45;;
20639;SDS011;10479;53.524;9.846;2023-10-13T01:18:55;31.52;;;8.40;;
20639;SDS011;10479;53.524;9.846;2023-10-13T01:21:24;23.48;;;8.07;;
20639;SDS011;10479;53.524;9.846;2023-10-13T01:23:52;33.45;;;8.43;;
20639;SDS011;10479;53.524;9.846;2023-10-13T01:26:18;23.48;;;8.07;;
20639;SDS011;10479;53.524;9.846;2023-10-13T01:28:49;23.27;;;8.02;;
20639;SDS011;10479;53.524;9.846;2023-10-13T01:31:16;28.05;;;8.23;;
20639;SDS011;10479;53.524;9.846;2023-10-13T01:33:53;26.67;;;8.35;;
20639;SDS011;10479;53.524;9.846;2023-10-13T01:36:24;30.20;;;9.73;;
20639;SDS011;10479;53.524;9.846;2023-10-13T01:38:50;35.83;;;10.05;;
20639;SDS011;10479;53.524;9.846;2023-10-13T01:41:16;32.35;;;8.75;;
20639;SDS011;10479;53.524;9.846;2023-10-13T01:43:43;41.58;;;10.75;;
20639;SDS011;10479;53.524;9.846;2023-10-13T01:46:10;32.35;;;10.00;;
20639;SDS011;10479;53.524;9.846;2023-10-13T01:48:38;22.58;;;8.85;;
20639;SDS011;10479;53.524;9.846;2023-10-13T01:51:05;38.78;;;10.85;;
20639;SDS011;10479;53.524;9.846;2023-10-13T01:53:35;34.58;;;10.18;;
20639;SDS011;10479;53.524;9.846;2023-10-13T01:56:06;30.73;;;10.10;;
20639;SDS011;10479;53.524;9.846;2023-10-13T01:58:39;30.02;;;9.77;;
20639;SDS011;10479;53.524;9.846;2023-10-13T02:01:11;31.17;;;10.47;;
20639;SDS011;10479;53.524;9.846;2023-10-13T02:03:38;33.80;;;11.25;;
20639;SDS011;10479;53.524;9.846;2023-10-13T02:06:11;41.10;;;11.23;;
20639;SDS011;10479;53.524;9.846;2023-10-13T02:08:42;31.92;;;11.40;;
20639;SDS011;10479;53.524;9.846;2023-10-13T02:11:09;40.10;;;12.13;;
20639;SDS011;10479;53.524;9.846;2023-10-13T02:13:34;44.70;;;12.63;;
20639;SDS011;10479;53.524;9.846;2023-10-13T02:16:06;35.05;;;12.68;;
20639;SDS011;10479;53.524;9.846;2023-10-13T02:18:32;44.13;;;12.77;;
20639;SDS011;10479;53.524;9.846;2023-10-13T02:21:08;44.45;;;13.05;;
20639;SDS011;10479;53.524;9.846;2023-10-13T02:23:40;38.85;;;13.25;;
20639;SDS011;10479;53.524;9.846;2023-10-13T02:26:10;51.50;;;12.80;;
20639;SDS011;10479;53.524;9.846;2023-10-13T02:28:55;41.83;;;12.73;;
20639;SDS011;10479;53.524;9.846;2023-10-13T02:31:22;46.65;;;13.30;;
20639;SDS011;10479;53.524;9.846;2023-10-13T02:33:49;42.58;;;13.25;;
20639;SDS011;10479;53.524;9.846;2023-10-13T02:36:15;38.30;;;13.10;;
20639;SDS011;10479;53.524;9.846;2023-10-13T02:38:47;34.07;;;11.57;;
20639;SDS011;10479;53.524;9.846;2023-10-13T02:41:17;33.10;;;12.57;;
20639;SDS011;10479;53.524;9.846;2023-10-13T02:44:02;35.35;;;12.95;;
20639;SDS011;10479;53.524;9.846;2023-10-13T02:46:32;32.88;;;11.75;;
20639;SDS011;10479;53.524;9.846;2023-10-13T02:49:01;43.92;;;13.48;;
20639;SDS011;10479;53.524;9.846;2023-10-13T02:51:36;41.60;;;12.73;;
20639;SDS011;10479;53.524;9.846;2023-10-13T02:54:07;42.65;;;14.07;;
20639;SDS011;10479;53.524;9.846;2023-10-13T02:56:37;38.83;;;13.65;;
20639;SDS011;10479;53.524;9.846;2023-10-13T02:59:13;45.33;;;14.57;;
20639;SDS011;10479;53.524;9.846;2023-10-13T03:01:38;41.22;;;14.38;;
20639;SDS011;10479;53.524;9.846;2023-10-13T03:04:04;37.38;;;13.45;;
20639;SDS011;10479;53.524;9.846;2023-10-13T03:06:34;51.58;;;14.35;;
20639;SDS011;10479;53.524;9.846;2023-10-13T03:09:09;37.10;;;14.02;;
20639;SDS011;10479;53.524;9.846;2023-10-13T03:11:47;40.33;;;13.13;;
20639;SDS011;10479;53.524;9.846;2023-10-13T03:14:20;32.47;;;12.13;;
20639;SDS011;10479;53.524;9.846;2023-10-13T03:16:57;40.88;;;13.63;;
20639;SDS011;10479;53.524;9.846;2023-10-13T03:19:41;53.17;;;14.82;;
20639;SDS011;10479;53.524;9.846;2023-10-13T03:22:11;39.85;;;13.77;;
20639;SDS011;10479;53.524;9.846;2023-10-13T03:24:38;45.78;;;13.52;;
20639;SDS011;10479;53.524;9.846;2023-10-13T03:27:10;32.37;;;12.53;;
20639;SDS011;10479;53.524;9.846;2023-10-13T03:29:37;34.17;;;13.05;;
20639;SDS011;10479;53.524;9.846;2023-10-13T03:32:09;46.90;;;14.98;;
20639;SDS011;10479;53.524;9.846;2023-10-13T03:34:41;27.30;;;12.23;;
20639;SDS011;10479;53.524;9.846;2023-10-13T03:37:16;25.80;;;11.43;;
20639;SDS011;10479;53.524;9.846;2023-10-13T03:40:02;21.38;;;9.77;;
20639;SDS011;10479;53.524;9.846;2023-10-13T03:42:31;23.55;;;10.07;;
20639;SDS011;10479;53.524;9.846;2023-10-13T03:44:57;23.42;;;9.32;;
20639;SDS011;10479;53.524;9.846;2023-10-13T03:47:22;20.85;;;9.90;;
20639;SDS011;10479;53.524;9.846;2023-10-13T03:49:57;21.20;;;9.55;;
20639;SDS011;10479;53.524;9.846;2023-10-13T03:52:41;19.75;;;8.95;;
20639;SDS011;10479;53.524;9.846;2023-10-13T03:55:07;25.15;;;9.68;;
20639;SDS011;10479;53.524;9.846;2023-10-13T03:57:41;23.05;;;10.23;;
20639;SDS011;10479;53.524;9.846;2023-10-13T04:00:07;22.30;;;10.57;;
20639;SDS011;10479;53.524;9.846;2023-10-13T04:02:46;24.85;;;11.10;;
20639;SDS011;10479;53.524;9.846;2023-10-13T04:05:17;31.95;;;12.70;;
20639;SDS011;10479;53.524;9.846;2023-10-13T04:08:03;31.13;;;12.82;;
20639;SDS011;10479;53.524;9.846;2023-10-13T04:10:51;31.63;;;14.27;;
20639;SDS011;10479;53.524;9.846;2023-10-13T04:13:17;37.42;;;15.05;;
20639;SDS011;10479;53.524;9.846;2023-10-13T04:16:18;36.30;;;15.90;;
20639;SDS011;10479;53.524;9.846;2023-10-13T04:18:47;41.47;;;18.00;;
20639;SDS011;10479;53.524;9.846;2023-10-13T04:21:33;42.83;;;17.65;;
20639;SDS011;10479;53.524;9.846;2023-10-13T04:24:21;49.20;;;18.95;;
20639;SDS011;10479;53.524;9.846;2023-10-13T04:26:51;51.25;;;20.80;;
20639;SDS011;10479;53.524;9.846;2023-10-13T04:29:35;49.63;;;20.65;;
20639;SDS011;10479;53.524;9.846;2023-10-13T04:32:26;53.53;;;21.83;;
20639;SDS011;10479;53.524;9.846;2023-10-13T04:34:58;53.75;;;23.08;;
20639;SDS011;10479;53.524;9.846;2023-10-13T04:37:36;65.05;;;25.45;;
20639;SDS011;10479;53.524;9.846;2023-10-13T04:40:40;64.18;;;24.08;;
20639;SDS011;10479;53.524;9.846;2023-10-13T04:43:23;66.28;;;26.13;;
20639;SDS011;10479;53.524;9.846;2023-10-13T04:45:59;63.83;;;25.55;;
20639;SDS011;10479;53.524;9.846;2023-10-13T04:48:39;65.60;;;25.85;;
20639;SDS011;10479;53.524;9.846;2023-10-13T04:51:12;81.15;;;28.73;;
20639;SDS011;10479;53.524;9.846;2023-10-13T04:53:59;77.85;;;29.15;;
20639;SDS011;10479;53.524;9.846;2023-10-13T04:56:25;72.38;;;28.13;;
20639;SDS011;10479;53.524;9.846;2023-10-13T04:59:17;67.75;;;28.65;;
20639;SDS011;10479;53.524;9.846;2023-10-13T05:01:43;73.03;;;29.08;;
20639;SDS011;10479;53.524;9.846;2023-10-13T05:04:15;75.20;;;28.60;;
20639;SDS011;10479;53.524;9.846;2023-10-13T05:06:47;70.43;;;29.38;;
20639;SDS011;10479;53.524;9.846;2023-10-13T05:09:31;75.47;;;29.40;;
20639;SDS011;10479;53.524;9.846;2023-10-13T05:12:15;69.15;;;28.02;;
20639;SDS011;10479;53.524;9.846;2023-10-13T05:14:59;74.82;;;29.25;;
20639;SDS011;10479;53.524;9.846;2023-10-13T05:17:43;81.30;;;30.15;;
20639;SDS011;10479;53.524;9.846;2023-10-13T05:20:41;75.38;;;29.88;;
20639;SDS011;10479;53.524;9.846;2023-10-13T05:23:25;60.70;;;27.45;;
20639;SDS011;10479;53.524;9.846;2023-10-13T05:26:09;62.13;;;27.58;;
20639;SDS011;10479;53.524;9.846;2023-10-13T05:28:53;60.25;;;26.75;;
20639;SDS011;10479;53.524;9.846;2023-10-13T05:31:36;55.95;;;25.45;;
20639;SDS011;10479;53.524;9.846;2023-10-13T05:34:20;69.03;;;28.27;;
20639;SDS011;10479;53.524;9.846;2023-10-13T05:37:04;53.42;;;25.73;;
20639;SDS011;10479;53.524;9.846;2023-10-13T05:39:48;65.68;;;27.17;;
20639;SDS011;10479;53.524;9.846;2023-10-13T05:42:31;64.63;;;28.50;;
20639;SDS011;10479;53.524;9.846;2023-10-13T05:45:15;67.05;;;28.58;;
20639;SDS011;10479;53.524;9.846;2023-10-13T05:47:43;66.97;;;28.45;;
20639;SDS011;10479;53.524;9.846;2023-10-13T05:50:12;68.75;;;28.50;;
20639;SDS011;10479;53.524;9.846;2023-10-13T05:52:48;68.25;;;29.40;;
20639;SDS011;10479;53.524;9.846;2023-10-13T05:55:26;66.90;;;27.52;;
20639;SDS011;10479;53.524;9.846;2023-10-13T05:58:14;67.63;;;29.23;;
20639;SDS011;10479;53.524;9.846;2023-10-13T06:00:58;64.50;;;28.55;;
20639;SDS011;10479;53.524;9.846;2023-10-13T06:03:42;65.40;;;29.23;;
20639;SDS011;10479;53.524;9.846;2023-10-13T06:06:26;62.70;;;27.63;;
20639;SDS011;10479;53.524;9.846;2023-10-13T06:09:10;60.50;;;28.17;;
20639;SDS011;10479;53.524;9.846;2023-10-13T06:11:54;59.55;;;28.50;;
20639;SDS011;10479;53.524;9.846;2023-10-13T06:14:38;56.00;;;27.20;;
20639;SDS011;10479;53.524;9.846;2023-10-13T06:17:22;62.40;;;28.45;;
20639;SDS011;10479;53.524;9.846;2023-10-13T06:20:06;62.75;;;28.80;;
20639;SDS011;10479;53.524;9.846;2023-10-13T06:22:51;61.22;;;28.70;;
20639;SDS011;10479;53.524;9.846;2023-10-13T06:25:35;61.25;;;28.33;;
20639;SDS011;10479;53.524;9.846;2023-10-13T06:28:19;53.95;;;25.52;;
20639;SDS011;10479;53.524;9.846;2023-10-13T06:31:03;53.20;;;25.17;;
20639;SDS011;10479;53.524;9.846;2023-10-13T06:33:31;49.70;;;25.60;;
20639;SDS011;10479;53.524;9.846;2023-10-13T06:36:02;55.25;;;27.35;;
20639;SDS011;10479;53.524;9.846;2023-10-13T06:38:28;59.08;;;28.33;;
20639;SDS011;10479;53.524;9.846;2023-10-13T06:41:07;54.80;;;27.50;;
20639;SDS011;10479;53.524;9.846;2023-10-13T06:43:33;67.28;;;30.35;;
20639;SDS011;10479;53.524;9.846;2023-10-13T06:46:11;62.20;;;31.20;;
20639;SDS011;10479;53.524;9.846;2023-10-13T06:48:48;60.53;;;29.05;;
20639;SDS011;10479;53.524;9.846;2023-10-13T06:51:18;64.75;;;30.60;;
20639;SDS011;10479;53.524;9.846;2023-10-13T06:53:46;62.38;;;29.50;;
20639;SDS011;10479;53.524;9.846;2023-10-13T06:56:13;62.00;;;29.45;;
20639;SDS011;10479;53.524;9.846;2023-10-13T06:58:43;63.20;;;30.30;;
20639;SDS011;10479;53.524;9.846;2023-10-13T07:01:11;69.82;;;30.98;;
20639;SDS011;10479;53.524;9.846;2023-10-13T07:03:41;70.80;;;30.38;;
20639;SDS011;10479;53.524;9.846;2023-10-13T07:06:07;61.97;;;30.02;;
20639;SDS011;10479;53.524;9.846;2023-10-13T07:08:37;60.45;;;29.27;;
20639;SDS011;10479;53.524;9.846;2023-10-13T07:11:03;60.38;;;29.42;;
20639;SDS011;10479;53.524;9.846;2023-10-13T07:13:33;57.65;;;28.38;;
20639;SDS011;10479;53.524;9.846;2023-10-13T07:16:03;58.20;;;29.35;;
20639;SDS011;10479;53.524;9.846;2023-10-13T07:18:38;56.88;;;29.08;;
20639;SDS011;10479;53.524;9.846;2023-10-13T07:21:14;52.40;;;27.27;;
20639;SDS011;10479;53.524;9.846;2023-10-13T07:23:49;48.33;;;24.77;;
20639;SDS011;10479;53.524;9.846;2023-10-13T07:26:26;56.53;;;25.15;;
20639;SDS011;10479;53.524;9.846;2023-10-13T07:28:51;51.70;;;26.77;;
20639;SDS011;10479;53.524;9.846;2023-10-13T07:31:17;52.33;;;26.92;;
20639;SDS011;10479;53.524;9.846;2023-10-13T07:33:46;50.20;;;26.50;;
20639;SDS011;10479;53.524;9.846;2023-10-13T07:36:12;46.10;;;22.52;;
20639;SDS011;10479;53.524;9.846;2023-10-13T07:38:44;49.35;;;24.58;;
20639;SDS011;10479;53.524;9.846;2023-10-13T07:41:34;36.50;;;17.75;;
20639;SDS011;10479;53.524;9.846;2023-10-13T07:44:01;40.28;;;22.08;;
20639;SDS011;10479;53.524;9.846;2023-10-13T07:46:29;34.08;;;18.10;;
20639;SDS011;10479;53.524;9.846;2023-10-13T07:49:00;36.05;;;19.08;;
20639;SDS011;10479;53.524;9.846;2023-10-13T07:51:34;30.52;;;17.65;;
20639;SDS011;10479;53.524;9.846;2023-10-13T07:54:10;28.67;;;17.40;;
20639;SDS011;10479;53.524;9.846;2023-10-13T07:56:40;30.15;;;17.25;;
20639;SDS011;10479;53.524;9.846;2023-10-13T07:59:05;26.65;;;14.73;;
20639;SDS011;10479;53.524;9.846;2023-10-13T08:01:34;24.38;;;13.82;;
20639;SDS011;10479;53.524;9.846;2023-10-13T08:04:00;26.83;;;15.23;;
20639;SDS011;10479;53.524;9.846;2023-10-13T08:06:31;25.45;;;14.77;;
20639;SDS011;10479;53.524;9.846;2023-10-13T08:08:59;24.63;;;14.10;;
20639;SDS011;10479;53.524;9.846;2023-10-13T08:11:34;27.02;;;14.50;;
20639;SDS011;10479;53.524;9.846;2023-10-13T08:14:02;24.42;;;13.40;;
20639;SDS011;10479;53.524;9.846;2023-10-13T08:16:43;27.50;;;15.65;;
20639;SDS011;10479;53.524;9.846;2023-10-13T08:19:23;25.20;;;13.98;;
20639;SDS011;10479;53.524;9.846;2023-10-13T08:21:57;21.17;;;12.93;;
20639;SDS011;10479;53.524;9.846;2023-10-13T08:24:27;21.60;;;12.80;;
20639;SDS011;10479;53.524;9.846;2023-10-13T08:27:05;22.80;;;11.95;;
20639;SDS011;10479;53.524;9.846;2023-10-13T08:29:59;21.08;;;11.63;;
20639;SDS011;10479;53.524;9.846;2023-10-13T08:32:44;23.23;;;13.35;;
20639;SDS011;10479;53.524;9.846;2023-10-13T08:35:30;20.60;;;12.73;;
20639;SDS011;10479;53.524;9.846;2023-10-13T08:37:55;19.15;;;11.73;;
20639;SDS011;10479;53.524;9.846;2023-10-13T08:40:27;14.30;;;8.25;;
20639;SDS011;10479;53.524;9.846;2023-10-13T08:43:12;18.13;;;10.00;;
20639;SDS011;10479;53.524;9.846;2023-10-13T08:45:41;19.05;;;10.77;;
20639;SDS011;10479;53.524;9.846;2023-10-13T08:48:08;19.75;;;10.52;;
20639;SDS011;10479;53.524;9.846;2023-10-13T08:50:44;20.73;;;10.13;;
20639;SDS011;10479;53.524;9.846;2023-10-13T08:53:28;17.50;;;9.52;;
20639;SDS011;10479;53.524;9.846;2023-10-13T08:56:07;15.27;;;9.02;;
20639;SDS011;10479;53.524;9.846;2023-10-13T08:58:38;17.95;;;10.82;;
20639;SDS011;10479;53.524;9.846;2023-10-13T09:01:23;15.52;;;7.90;;
20639;SDS011;10479;53.524;9.846;2023-10-13T09:04:09;20.13;;;9.50;;
20639;SDS011;10479;53.524;9.846;2023-10-13T09:12:17;15.82;;;7.55;;
20639;SDS011;10479;53.524;9.846;2023-10-13T09:14:53;12.65;;;6.75;;
20639;SDS011;10479;53.524;9.846;2023-10-13T09:17:43;17.27;;;8.90;;
20639;SDS011;10479;53.524;9.846;2023-10-13T09:20:16;13.15;;;7.70;;
20639;SDS011;10479;53.524;9.846;2023-10-13T09:22:48;13.63;;;8.55;;
20639;SDS011;10479;53.524;9.846;2023-10-13T09:25:26;12.57;;;7.07;;
20639;SDS011;10479;53.524;9.846;2023-10-13T09:28:10;11.93;;;7.15;;
20639;SDS011;10479;53.524;9.846;2023-10-13T09:30:46;12.32;;;6.97;;
20639;SDS011;10479;53.524;9.846;2023-10-13T09:33:13;12.60;;;6.30;;
20639;SDS011;10479;53.524;9.846;2023-10-13T09:35:42;14.50;;;6.35;;
20639;SDS011;10479;53.524;9.846;2023-10-13T09:38:15;12.40;;;6.03;;
20639;SDS011;10479;53.524;9.846;2023-10-13T09:40:41;13.95;;;5.82;;
20639;SDS011;10479;53.524;9.846;2023-10-13T09:43:23;21.03;;;5.60;;
20639;SDS011;10479;53.524;9.846;2023-10-13T09:45:50;15.20;;;5.97;;
20639;SDS011;10479;53.524;9.846;2023-10-13T09:48:48;15.60;;;5.63;;
20639;SDS011;10479;53.524;9.846;2023-10-13T09:51:18;11.27;;;5.95;;
20639;SDS011;10479;53.524;9.846;2023-10-13T09:56:42;13.80;;;6.25;;
20639;SDS011;10479;53.524;9.846;2023-10-13T09:59:28;11.15;;;5.50;;
20639;SDS011;10479;53.524;9.846;2023-10-13T10:02:03;16.58;;;6.30;;
20639;SDS011;10479;53.524;9.846;2023-10-13T10:04:50;12.68;;;6.20;;
20639;SDS011;10479;53.524;9.846;2023-10-13T10:07:26;12.10;;;6.18;;
20639;SDS011;10479;53.524;9.846;2023-10-13T10:09:56;13.50;;;5.80;;
20639;SDS011;10479;53.524;9.846;2023-10-13T10:12:36;16.17;;;5.75;;
20639;SDS011;10479;53.524;9.846;2023-10-13T10:17:53;13.70;;;5.63;;
20639;SDS011;10479;53.524;9.846;2023-10-13T10:20:27;17.75;;;6.13;;
20639;SDS011;10479;53.524;9.846;2023-10-13T10:22:58;14.85;;;6.10;;
20639;SDS011;10479;53.524;9.846;2023-10-13T10:25:31;16.15;;;5.97;;
20639;SDS011;10479;53.524;9.846;2023-10-13T10:28:01;10.27;;;4.63;;
20639;SDS011;10479;53.524;9.846;2023-10-13T10:30:31;16.67;;;6.57;;
20639;SDS011;10479;53.524;9.846;2023-10-13T10:32:59;13.45;;;6.32;;
20639;SDS011;10479;53.524;9.846;2023-10-13T10:35:25;11.95;;;5.95;;
20639;SDS011;10479;53.524;9.846;2023-10-13T10:38:16;11.60;;;5.50;;
20639;SDS011;10479;53.524;9.846;2023-10-13T10:40:53;14.35;;;5.90;;
20639;SDS011;10479;53.524;9.846;2023-10-13T10:46:13;14.45;;;4.90;;
20639;SDS011;10479;53.524;9.846;2023-10-13T10:48:52;12.60;;;5.60;;
20639;SDS011;10479;53.524;9.846;2023-10-13T10:51:26;11.73;;;5.28;;
20639;SDS011;10479;53.524;9.846;2023-10-13T10:53:56;12.38;;;4.90;;
20639;SDS011;10479;53.524;9.846;2023-10-13T10:56:24;10.98;;;4.72;;
20639;SDS011;10479;53.524;9.846;2023-10-13T10:59:05;14.35;;;5.72;;
20639;SDS011;10479;53.524;9.846;2023-10-13T11:01:45;10.03;;;4.80;;
20639;SDS011;10479;53.524;9.846;2023-10-13T11:04:16;14.10;;;5.97;;
20639;SDS011;10479;53.524;9.846;2023-10-13T11:06:51;13.15;;;5.40;;
20639;SDS011;10479;53.524;9.846;2023-10-13T11:09:24;15.93;;;5.63;;
20639;SDS011;10479;53.524;9.846;2023-10-13T11:11:56;10.95;;;5.22;;
20639;SDS011;10479;53.524;9.846;2023-10-13T11:14:48;15.13;;;6.07;;
20639;SDS011;10479;53.524;9.846;2023-10-13T11:17:22;13.55;;;5.78;;
20639;SDS011;10479;53.524;9.846;2023-10-13T11:19:54;13.15;;;5.78;;
20639;SDS011;10479;53.524;9.846;2023-10-13T11:22:20;11.07;;;5.15;;
20639;SDS011;10479;53.524;9.846;2023-10-13T11:25:06;16.27;;;5.55;;
20639;SDS011;10479;53.524;9.846;2023-10-13T11:27:35;9.90;;;4.80;;
20639;SDS011;10479;53.524;9.846;2023-10-13T11:30:18;13.13;;;5.35;;
20639;SDS011;10479;53.524;9.846;2023-10-13T11:32:56;12.63;;;5.70;;
20639;SDS011;10479;53.524;9.846;2023-10-13T11:35:22;13.52;;;4.53;;
20639;SDS011;10479;53.524;9.846;2023-10-13T11:37:51;10.13;;;4.82;;
20639;SDS011;10479;53.524;9.846;2023-10-13T11:40:38;12.32;;;4.60;;
20639;SDS011;10479;53.524;9.846;2023-10-13T11:43:33;11.23;;;4.78;;
20639;SDS011;10479;53.524;9.846;2023-10-13T11:46:15;13.95;;;5.32;;
20639;SDS011;10479;53.524;9.846;2023-10-13T11:48:42;10.65;;;4.70;;
20639;SDS011;10479;53.524;9.846;2023-10-13T11:51:09;14.57;;;5.38;;
20639;SDS011;10479;53.524;9.846;2023-10-13T11:53:58;13.32;;;5.07;;
20639;SDS011;10479;53.524;9.846;2023-10-13T11:56:23;11.80;;;5.03;;
20639;SDS011;10479;53.524;9.846;2023-10-13T11:58:49;13.85;;;5.00;;
20639;SDS011;10479;53.524;9.846;2023-10-13T12:01:15;13.60;;;4.57;;
20639;SDS011;10479;53.524;9.846;2023-10-13T12:03:45;13.20;;;4.78;;
20639;SDS011;10479;53.524;9.846;2023-10-13T12:06:30;10.98;;;4.53;;
20639;SDS011;10479;53.524;9.846;2023-10-13T12:11:47;13.25;;;4.72;;
20639;SDS011;10479;53.524;9.846;2023-10-13T12:14:19;16.13;;;4.82;;
20639;SDS011;10479;53.524;9.846;2023-10-13T12:16:52;11.25;;;4.40;;
20639;SDS011;10479;53.524;9.846;2023-10-13T12:19:19;22.80;;;4.88;;
20639;SDS011;10479;53.524;9.846;2023-10-13T12:21:55;11.90;;;4.20;;
20639;SDS011;10479;53.524;9.846;2023-10-13T12:24:26;16.38;;;3.95;;
20639;SDS011;10479;53.524;9.846;2023-10-13T12:27:05;18.17;;;5.18;;
20639;SDS011;10479;53.524;9.846;2023-10-13T12:29:59;12.55;;;4.20;;
20639;SDS011;10479;53.524;9.846;2023-10-13T12:32:32;13.95;;;4.15;;
20639;SDS011;10479;53.524;9.846;2023-10-13T12:34:59;11.10;;;4.18;;
20639;SDS011;10479;53.524;9.846;2023-10-13T12:37:42;11.13;;;4.07;;
20639;SDS011;10479;53.524;9.846;2023-10-13T12:40:08;12.82;;;3.83;;
20639;SDS011;10479;53.524;9.846;2023-10-13T12:42:53;13.95;;;4.65;;
20639;SDS011;10479;53.524;9.846;2023-10-13T12:45:44;21.88;;;4.10;;
20639;SDS011;10479;53.524;9.846;2023-10-13T12:48:29;15.05;;;4.25;;
20639;SDS011;10479;53.524;9.846;2023-10-13T12:51:14;12.35;;;4.57;;
20639;SDS011;10479;53.524;9.846;2023-10-13T12:53:49;15.40;;;4.03;;
20639;SDS011;10479;53.524;9.846;2023-10-13T12:56:16;16.05;;;4.68;;
20639;SDS011;10479;53.524;9.846;2023-10-13T12:58:42;14.65;;;4.38;;
20639;SDS011;10479;53.524;9.846;2023-10-13T13:01:20;18.10;;;4.68;;
20639;SDS011;10479;53.524;9.846;2023-10-13T13:03:51;13.20;;;4.78;;
20639;SDS011;10479;53.524;9.846;2023-10-13T13:06:24;14.52;;;4.60;;
20639;SDS011;10479;53.524;9.846;2023-10-13T13:11:20;16.27;;;4.55;;
20639;SDS011;10479;53.524;9.846;2023-10-13T13:13:47;14.38;;;4.80;;
20639;SDS011;10479;53.524;9.846;2023-10-13T13:16:13;14.05;;;4.72;;
20639;SDS011;10479;53.524;9.846;2023-10-13T13:18:39;15.75;;;4.55;;
20639;SDS011;10479;53.524;9.846;2023-10-13T13:21:05;12.40;;;4.25;;
20639;SDS011;10479;53.524;9.846;2023-10-13T13:23:31;20.20;;;4.38;;
20639;SDS011;10479;53.524;9.846;2023-10-13T13:25:59;21.20;;;5.13;;
20639;SDS011;10479;53.524;9.846;2023-10-13T13:28:25;12.50;;;4.65;;
20639;SDS011;10479;53.524;9.846;2023-10-13T13:30:54;13.30;;;4.30;;
20639;SDS011;10479;53.524;9.846;2023-10-13T13:33:19;11.57;;;4.53;;
20639;SDS011;10479;53.524;9.846;2023-10-13T13:35:52;20.40;;;5.13;;
20639;SDS011;10479;53.524;9.846;2023-10-13T13:38:18;10.27;;;4.38;;
20639;SDS011;10479;53.524;9.846;2023-10-13T13:40:56;12.68;;;5.07;;
20639;SDS011;10479;53.524;9.846;2023-10-13T13:43:22;15.70;;;4.13;;
20639;SDS011;10479;53.524;9.846;2023-10-13T13:46:02;17.35;;;5.22;;
20639;SDS011;10479;53.524;9.846;2023-10-13T13:48:28;13.07;;;4.95;;
20639;SDS011;10479;53.524;9.846;2023-10-13T13:50:54;17.40;;;4.68;;
20639;SDS011;10479;53.524;9.846;2023-10-13T13:53:30;17.08;;;4.60;;
20639;SDS011;10479;53.524;9.846;2023-10-13T13:56:03;15.48;;;4.82;;
20639;SDS011;10479;53.524;9.846;2023-10-13T13:58:29;14.75;;;4.93;;
20639;SDS011;10479;53.524;9.846;2023-10-13T14:01:01;17.33;;;4.85;;
20639;SDS011;10479;53.524;9.846;2023-10-13T14:03:37;15.68;;;5.18;;
20639;SDS011;10479;53.524;9.846;2023-10-13T14:06:10;18.15;;;5.35;;
20639;SDS011;10479;53.524;9.846;2023-10-13T14:08:46;14.60;;;5.20;;
20639;SDS011;10479;53.524;9.846;2023-10-13T14:11:35;15.65;;;5.00;;
20639;SDS011;10479;53.524;9.846;2023-10-13T14:14:09;14.98;;;5.40;;
20639;SDS011;10479;53.524;9.846;2023-10-13T14:16:52;16.60;;;6.22;;
20639;SDS011;10479;53.524;9.846;2023-10-13T14:19:19;14.35;;;5.65;;
20639;SDS011;10479;53.524;9.846;2023-10-13T14:21:57;15.60;;;5.30;;
20639;SDS011;10479;53.524;9.846;2023-10-13T14:24:31;17.15;;;5.40;;
20639;SDS011;10479;53.524;9.846;2023-10-13T14:26:59;20.38;;;6.05;;
20639;SDS011;10479;53.524;9.846;2023-10-13T14:29:40;17.80;;;5.13;;
20639;SDS011;10479;53.524;9.846;2023-10-13T14:32:08;14.23;;;4.90;;
20639;SDS011;10479;53.524;9.846;2023-10-13T14:34:39;14.57;;;5.45;;
20639;SDS011;10479;53.524;9.846;2023-10-13T14:37:06;13.40;;;5.18;;
20639;SDS011;10479;53.524;9.846;2023-10-13T14:39:34;16.60;;;5.03;;
20639;SDS011;10479;53.524;9.846;2023-10-13T14:42:02;14.07;;;5.35;;
20639;SDS011;10479;53.524;9.846;2023-10-13T14:44:35;16.15;;;5.88;;
20639;SDS011;10479;53.524;9.846;2023-10-13T14:47:04;20.77;;;5.28;;
20639;SDS011;10479;53.524;9.846;2023-10-13T14:49:31;14.73;;;5.40;;
20639;SDS011;10479;53.524;9.846;2023-10-13T14:51:56;15.98;;;5.63;;
20639;SDS011;10479;53.524;9.846;2023-10-13T14:54:24;15.05;;;5.10;;
20639;SDS011;10479;53.524;9.846;2023-10-13T14:57:03;15.57;;;5.72;;
20639;SDS011;10479;53.524;9.846;2023-10-13T14:59:29;21.73;;;5.78;;
20639;SDS011;10479;53.524;9.846;2023-10-13T15:02:02;20.13;;;5.63;;
20639;SDS011;10479;53.524;9.846;2023-10-13T15:04:31;18.27;;;5.60;;
20639;SDS011;10479;53.524;9.846;2023-10-13T15:07:01;13.35;;;5.28;;
20639;SDS011;10479;53.524;9.846;2023-10-13T15:09:27;16.63;;;5.22;;
20639;SDS011;10479;53.524;9.846;2023-10-13T15:11:54;21.83;;;6.05;;
20639;SDS011;10479;53.524;9.846;2023-10-13T15:14:21;12.23;;;5.05;;
20639;SDS011;10479;53.524;9.846;2023-10-13T15:16:49;14.60;;;5.18;;
20639;SDS011;10479;53.524;9.846;2023-10-13T15:19:16;13.38;;;5.07;;
20639;SDS011;10479;53.524;9.846;2023-10-13T15:21:42;15.88;;;5.55;;
20639;SDS011;10479;53.524;9.846;2023-10-13T15:24:14;16.65;;;5.45;;
20639;SDS011;10479;53.524;9.846;2023-10-13T15:26:44;13.45;;;5.35;;
20639;SDS011;10479;53.524;9.846;2023-10-13T15:29:18;17.25;;;4.75;;